Thunder radar more information blitzortung!


Radar de pluja more information rain snow radar


Visita la nostra xarxa de llocs de meteo:

Template documentation
and downloads

And another site



No particular awareness of the weather is required.    There are no Weather-warnings

Pagina Historial Weather Underground text

Diari Resum Octubre 10, 2017 Unitats:  Mètric    Imperial   Tant
« Previous Dia
SegĂźent Dia »
Diari Setmana Mensual Anual Personalitzada
  Maxima: Minima: Media:
Temperatura: 25.4 °C 13.7 °C 18.8 °C
Punt de rosada: 16.0 °C 12.1 °C 14.2 °C
Humitat: 91 % 49 % 76 %
Wind Speed: 16.1 km/h 0.0 km/h 3.2 km/h
RĂ fegues de vent: 16.1 km/h - -
Vent:- - SSE
Pression baro: 1021.9 hPa 1018.8 hPa -
Precipitacions: 0.0 mm    
Historical Graphs
 
 
Dades de taula per Octubre 10, 2017
Temps Temperatura Punt de rosada Pression baro Vent Wind Speed RĂ fegues de vent Humitat Rainfall Rate (Hourly)
00:04 17.7 °C 14.0 °C 1019.9 hPa Calm     79 % 0.0 mm
00:09 17.7 °C 14.2 °C 1019.9 hPa SSE 1.9 km/h   80 % 0.0 mm
00:14 17.6 °C 14.1 °C 1019.9 hPa Calm     80 % 0.0 mm
00:19 17.6 °C 14.1 °C 1019.9 hPa ENE 1.9 km/h   80 % 0.0 mm
00:24 17.5 °C 14.0 °C 1019.9 hPa Calm     80 % 0.0 mm
00:29 17.3 °C 13.8 °C 1019.9 hPa Calm     80 % 0.0 mm
00:34 17.3 °C 13.8 °C 1019.9 hPa ENE 2.3 km/h 2.3 km/h 80 % 0.0 mm
00:39 17.1 °C 13.6 °C 1019.9 hPa NE 1.9 km/h   80 % 0.0 mm
00:44 17.0 °C 13.7 °C 1019.9 hPa Calm     81 % 0.0 mm
00:49 17.0 °C 13.7 °C 1019.9 hPa Calm     81 % 0.0 mm
00:54 17.0 °C 13.7 °C 1019.9 hPa Calm     81 % 0.0 mm
00:59 16.9 °C 14.0 °C 1019.9 hPa Calm     83 % 0.0 mm
01:04 16.9 °C 14.0 °C 1019.9 hPa Calm     83 % 0.0 mm
01:09 16.9 °C 14.0 °C 1019.9 hPa NE 1.9 km/h 1.9 km/h 83 % 0.0 mm
01:14 16.9 °C 14.0 °C 1019.9 hPa Calm     83 % 0.0 mm
01:19 16.8 °C 13.9 °C 1019.9 hPa Calm     83 % 0.0 mm
01:24 16.7 °C 13.8 °C 1019.9 hPa SW 1.4 km/h   83 % 0.0 mm
01:29 16.3 °C 13.4 °C 1019.9 hPa SW 1.9 km/h 1.9 km/h 83 % 0.0 mm
01:39 16.5 °C 13.8 °C 1019.9 hPa SW 3.7 km/h 3.7 km/h 84 % 0.0 mm
01:44 16.3 °C 13.6 °C 1019.9 hPa WSW 1.9 km/h   84 % 0.0 mm
01:49 16.4 °C 13.7 °C 1019.9 hPa Calm     84 % 0.0 mm
01:54 16.4 °C 13.9 °C 1019.9 hPa Calm     85 % 0.0 mm
01:59 16.5 °C 13.9 °C 1019.9 hPa Calm     85 % 0.0 mm
02:04 16.6 °C 14.1 °C 1019.9 hPa Calm     85 % 0.0 mm
02:09 16.6 °C 14.1 °C 1019.9 hPa WNW 2.6 km/h 2.6 km/h 85 % 0.0 mm
02:14 16.6 °C 14.1 °C 1019.9 hPa Calm     85 % 0.0 mm
02:19 16.6 °C 14.1 °C 1019.9 hPa NNW 3.7 km/h 3.7 km/h 85 % 0.0 mm
02:24 16.6 °C 14.1 °C 1019.9 hPa NNE 1.9 km/h   85 % 0.0 mm
02:29 16.5 °C 13.9 °C 1019.9 hPa Calm     85 % 0.0 mm
02:34 16.6 °C 14.2 °C 1019.9 hPa Calm     86 % 0.0 mm
02:39 16.6 °C 14.2 °C 1019.9 hPa NNE 1.9 km/h 1.9 km/h 86 % 0.0 mm
02:44 16.6 °C 14.2 °C 1018.8 hPa Calm     86 % 0.0 mm
02:49 16.5 °C 14.2 °C 1018.8 hPa ENE 3.2 km/h   86 % 0.0 mm
02:54 16.4 °C 14.1 °C 1018.8 hPa SSW 2.6 km/h 2.6 km/h 86 % 0.0 mm
02:59 16.2 °C 13.7 °C 1019.9 hPa Calm     85 % 0.0 mm
03:04 16.2 °C 13.7 °C 1019.9 hPa SSW 1.9 km/h   85 % 0.0 mm
03:09 16.1 °C 13.8 °C 1019.9 hPa South 1.9 km/h   86 % 0.0 mm
03:19 16.0 °C 13.7 °C 1019.9 hPa Calm     86 % 0.0 mm
03:24 15.9 °C 13.6 °C 1019.9 hPa Calm     86 % 0.0 mm
03:25 15.9 °C 13.6 °C 1019.9 hPa Calm     86 % 0.0 mm
03:30 15.8 °C 13.4 °C 1019.9 hPa Calm     86 % 0.0 mm
03:35 15.7 °C 13.4 °C 1019.9 hPa Calm     86 % 0.0 mm
03:40 15.7 °C 13.4 °C 1019.9 hPa SW 1.9 km/h 1.9 km/h 86 % 0.0 mm
03:45 15.7 °C 13.4 °C 1019.9 hPa Calm     86 % 0.0 mm
03:46 15.7 °C 13.6 °C 1019.9 hPa Calm     87 % 0.0 mm
03:51 15.6 °C 13.4 °C 1019.9 hPa Calm     87 % 0.0 mm
03:56 15.6 °C 13.4 °C 1019.9 hPa Calm     87 % 0.0 mm
04:01 15.7 °C 13.4 °C 1019.9 hPa WNW 1.9 km/h   86 % 0.0 mm
04:06 15.6 °C 13.4 °C 1019.9 hPa Calm     87 % 0.0 mm
04:11 15.6 °C 13.4 °C 1019.9 hPa Calm     87 % 0.0 mm
04:16 15.5 °C 13.3 °C 1019.9 hPa Calm     87 % 0.0 mm
04:22 15.3 °C 13.2 °C 1019.9 hPa Calm     87 % 0.0 mm
04:27 15.2 °C 13.1 °C 1019.9 hPa Calm     87 % 0.0 mm
04:32 15.3 °C 13.2 °C 1019.9 hPa Calm     87 % 0.0 mm
04:37 15.3 °C 13.3 °C 1019.9 hPa Calm     88 % 0.0 mm
04:42 15.3 °C 13.3 °C 1019.9 hPa Calm     88 % 0.0 mm
04:47 15.3 °C 13.3 °C 1019.9 hPa Calm     88 % 0.0 mm
04:52 15.3 °C 13.3 °C 1019.9 hPa Calm     88 % 0.0 mm
04:57 15.3 °C 13.3 °C 1019.9 hPa Calm     88 % 0.0 mm
05:03 15.3 °C 13.5 °C 1019.9 hPa Calm     89 % 0.0 mm
05:08 15.4 °C 13.6 °C 1019.9 hPa WNW 1.9 km/h   89 % 0.0 mm
05:14 15.3 °C 13.5 °C 1019.9 hPa Calm     89 % 0.0 mm
05:20 15.1 °C 13.1 °C 1019.9 hPa Calm     88 % 0.0 mm
05:25 15.1 °C 13.1 °C 1019.9 hPa Calm     88 % 0.0 mm
05:30 15.2 °C 13.2 °C 1019.9 hPa Calm     88 % 0.0 mm
05:35 15.1 °C 13.1 °C 1019.9 hPa Calm     88 % 0.0 mm
05:36 15.1 °C 13.1 °C 1019.9 hPa Calm     88 % 0.0 mm
05:41 15.0 °C 13.2 °C 1019.9 hPa Calm     89 % 0.0 mm
05:46 15.0 °C 13.2 °C 1019.9 hPa SW 2.3 km/h   89 % 0.0 mm
05:51 15.1 °C 13.3 °C 1019.9 hPa Calm     89 % 0.0 mm
05:56 15.1 °C 13.3 °C 1019.9 hPa Calm     89 % 0.0 mm
06:01 15.0 °C 13.2 °C 1018.8 hPa Calm     89 % 0.0 mm
06:06 14.9 °C 13.1 °C 1018.8 hPa Calm     89 % 0.0 mm
06:11 14.8 °C 13.0 °C 1018.8 hPa Calm     89 % 0.0 mm
06:16 14.8 °C 13.0 °C 1019.9 hPa Calm     89 % 0.0 mm
06:21 14.9 °C 13.1 °C 1019.9 hPa Calm     89 % 0.0 mm
06:26 14.8 °C 13.2 °C 1019.9 hPa Calm     90 % 0.0 mm
06:31 14.8 °C 13.2 °C 1019.9 hPa Calm     90 % 0.0 mm
06:36 14.8 °C 13.2 °C 1019.9 hPa Calm     90 % 0.0 mm
06:41 14.7 °C 13.1 °C 1019.9 hPa Calm     90 % 0.0 mm
06:46 14.7 °C 13.1 °C 1018.8 hPa NW 1.9 km/h   90 % 0.0 mm
06:51 14.5 °C 12.9 °C 1018.8 hPa Calm     90 % 0.0 mm
06:56 14.4 °C 12.6 °C 1018.8 hPa Calm     89 % 0.0 mm
07:01 14.3 °C 12.5 °C 1019.9 hPa Calm     89 % 0.0 mm
07:06 14.2 °C 12.4 °C 1019.9 hPa Calm     89 % 0.0 mm
07:11 14.1 °C 12.3 °C 1019.9 hPa Calm     89 % 0.0 mm
07:16 14.0 °C 12.2 °C 1019.9 hPa Calm     89 % 0.0 mm
07:21 14.1 °C 12.5 °C 1019.9 hPa Calm     90 % 0.0 mm
07:26 14.0 °C 12.4 °C 1019.9 hPa Calm     90 % 0.0 mm
07:31 14.0 °C 12.4 °C 1018.8 hPa Calm     90 % 0.0 mm
07:36 13.9 °C 12.3 °C 1018.8 hPa Calm     90 % 0.0 mm
07:41 13.9 °C 12.3 °C 1018.8 hPa Calm     90 % 0.0 mm
07:46 13.8 °C 12.2 °C 1019.9 hPa Calm     90 % 0.0 mm
07:51 13.8 °C 12.2 °C 1019.9 hPa Calm     90 % 0.0 mm
07:56 13.7 °C 12.1 °C 1019.9 hPa Calm     90 % 0.0 mm
08:01 13.7 °C 12.1 °C 1019.9 hPa Calm     90 % 0.0 mm
08:11 13.8 °C 12.2 °C 1019.9 hPa Calm     90 % 0.0 mm
08:16 13.7 °C 12.1 °C 1019.9 hPa Calm     90 % 0.0 mm
08:21 13.7 °C 12.1 °C 1019.9 hPa Calm     90 % 0.0 mm
08:26 13.8 °C 12.2 °C 1019.9 hPa Calm     90 % 0.0 mm
08:31 13.8 °C 12.3 °C 1019.9 hPa WNW 2.3 km/h 2.3 km/h 91 % 0.0 mm
08:36 13.9 °C 12.3 °C 1019.9 hPa SW 3.7 km/h 3.7 km/h 90 % 0.0 mm
08:41 13.9 °C 12.3 °C 1019.9 hPa SW 1.9 km/h 1.9 km/h 90 % 0.0 mm
08:46 14.0 °C 12.4 °C 1019.9 hPa WSW 3.7 km/h 3.7 km/h 90 % 0.0 mm
08:51 14.0 °C 12.4 °C 1019.9 hPa SW 3.7 km/h 3.7 km/h 90 % 0.0 mm
08:56 14.1 °C 12.7 °C 1019.9 hPa West 3.7 km/h 3.7 km/h 91 % 0.0 mm
08:57 14.2 °C 12.6 °C 1019.9 hPa WSW 3.7 km/h 3.7 km/h 90 % 0.0 mm
09:02 14.3 °C 12.7 °C 1020.9 hPa WSW 3.7 km/h 3.7 km/h 90 % 0.0 mm
09:07 14.5 °C 13.1 °C 1020.9 hPa WSW 1.9 km/h 1.9 km/h 91 % 0.0 mm
09:12 14.6 °C 13.2 °C 1020.9 hPa WSW 3.7 km/h 3.7 km/h 91 % 0.0 mm
09:17 14.9 °C 13.4 °C 1020.9 hPa WSW 4.2 km/h 4.2 km/h 91 % 0.0 mm
09:27 15.4 °C 13.9 °C 1020.9 hPa WSW 3.7 km/h 3.7 km/h 91 % 0.0 mm
09:32 15.6 °C 14.1 °C 1021.9 hPa SW 3.7 km/h 3.7 km/h 91 % 0.0 mm
09:37 15.8 °C 14.3 °C 1021.9 hPa SW 3.7 km/h 3.7 km/h 91 % 0.0 mm
09:42 16.1 °C 14.6 °C 1021.9 hPa SW 1.9 km/h   91 % 0.0 mm
09:47 16.2 °C 14.6 °C 1021.9 hPa SSW 1.9 km/h 1.9 km/h 90 % 0.0 mm
09:52 16.5 °C 14.8 °C 1021.9 hPa SSE 3.7 km/h 3.7 km/h 90 % 0.0 mm
09:57 16.8 °C 15.2 °C 1021.9 hPa SSW 3.7 km/h   90 % 0.0 mm
09:58 16.8 °C 15.2 °C 1021.9 hPa Calm     90 % 0.0 mm
10:03 17.3 °C 15.4 °C 1021.9 hPa WNW 1.9 km/h 1.9 km/h 89 % 0.0 mm
10:08 17.3 °C 15.1 °C 1021.9 hPa WSW 3.7 km/h 3.7 km/h 87 % 0.0 mm
10:18 18.2 °C 15.6 °C 1021.9 hPa SSW 1.9 km/h   85 % 0.0 mm
10:23 18.0 °C 15.3 °C 1021.9 hPa SW 3.7 km/h 3.7 km/h 84 % 0.0 mm
10:28 18.3 °C 15.4 °C 1021.9 hPa NNE 1.9 km/h   83 % 0.0 mm
10:33 18.4 °C 15.4 °C 1021.9 hPa SSW 3.7 km/h 3.7 km/h 83 % 0.0 mm
10:38 19.0 °C 15.7 °C 1021.9 hPa NE 3.9 km/h 3.9 km/h 81 % 0.0 mm
10:43 19.2 °C 15.7 °C 1021.9 hPa Calm     80 % 0.0 mm
10:48 19.4 °C 15.4 °C 1021.9 hPa NE 1.9 km/h 1.9 km/h 78 % 0.0 mm
10:53 19.8 °C 15.4 °C 1021.9 hPa East 4.2 km/h 4.2 km/h 76 % 0.0 mm
10:58 19.7 °C 15.6 °C 1021.9 hPa ENE 3.7 km/h 3.7 km/h 77 % 0.0 mm
11:03 19.8 °C 15.4 °C 1021.9 hPa SE 3.7 km/h 3.7 km/h 76 % 0.0 mm
11:08 20.3 °C 15.7 °C 1021.9 hPa NNE 6.9 km/h 6.9 km/h 75 % 0.0 mm
11:13 19.9 °C 15.1 °C 1021.9 hPa ESE 3.7 km/h 3.9 km/h 74 % 0.0 mm
11:18 20.3 °C 15.5 °C 1021.9 hPa NE 3.7 km/h 3.7 km/h 74 % 0.0 mm
11:19 20.4 °C 15.6 °C 1021.9 hPa ESE 4.7 km/h 4.7 km/h 74 % 0.0 mm
11:24 20.6 °C 15.4 °C 1021.9 hPa ESE 3.7 km/h 4.2 km/h 72 % 0.0 mm
11:29 20.5 °C 15.5 °C 1021.9 hPa ENE 5.6 km/h 5.6 km/h 73 % 0.0 mm
11:34 20.8 °C 15.8 °C 1021.9 hPa ENE 3.7 km/h 3.7 km/h 73 % 0.0 mm
11:39 21.1 °C 15.6 °C 1021.9 hPa South 5.6 km/h 5.6 km/h 71 % 0.0 mm
11:44 21.5 °C 16.0 °C 1021.9 hPa NNE 5.6 km/h 5.6 km/h 71 % 0.0 mm
11:49 21.5 °C 15.6 °C 1021.9 hPa ESE 4.7 km/h 4.7 km/h 69 % 0.0 mm
11:54 21.6 °C 15.7 °C 1021.9 hPa ESE 4.7 km/h 4.7 km/h 69 % 0.0 mm
11:59 22.0 °C 15.3 °C 1020.9 hPa ESE 5.6 km/h 5.6 km/h 66 % 0.0 mm
12:04 21.9 °C 15.7 °C 1020.9 hPa SSE 9.3 km/h 9.3 km/h 68 % 0.0 mm
12:09 22.1 °C 15.4 °C 1020.9 hPa NE 5.6 km/h 5.6 km/h 66 % 0.0 mm
12:14 22.1 °C 15.7 °C 1020.9 hPa East 5.6 km/h 5.6 km/h 67 % 0.0 mm
12:19 21.9 °C 15.3 °C 1020.9 hPa ENE 7.4 km/h 7.4 km/h 66 % 0.0 mm
12:24 22.2 °C 15.1 °C 1020.9 hPa SSE 7.4 km/h 7.4 km/h 64 % 0.0 mm
12:29 22.3 °C 15.4 °C 1021.9 hPa ESE 9.0 km/h 9.0 km/h 65 % 0.0 mm
12:34 22.1 °C 15.2 °C 1021.9 hPa NE 7.4 km/h 7.4 km/h 65 % 0.0 mm
12:39 22.2 °C 15.3 °C 1021.9 hPa East 7.4 km/h 7.4 km/h 65 % 0.0 mm
12:44 22.2 °C 15.3 °C 1020.9 hPa NE 5.6 km/h 5.6 km/h 65 % 0.0 mm
12:49 22.4 °C 15.5 °C 1020.9 hPa NNW 7.4 km/h 7.4 km/h 65 % 0.0 mm
12:54 22.3 °C 14.9 °C 1020.9 hPa ENE 5.6 km/h 5.6 km/h 63 % 0.0 mm
13:04 23.2 °C 15.8 °C 1020.9 hPa WSW 3.9 km/h 3.9 km/h 63 % 0.0 mm
13:09 23.7 °C 16.0 °C 1020.9 hPa SE 5.6 km/h 5.6 km/h 62 % 0.0 mm
13:14 24.1 °C 15.3 °C 1020.9 hPa SSE 5.6 km/h 5.8 km/h 58 % 0.0 mm
13:19 24.0 °C 15.5 °C 1020.9 hPa SSW 3.7 km/h 3.7 km/h 59 % 0.0 mm
13:24 23.7 °C 15.2 °C 1020.9 hPa South 6.1 km/h 6.1 km/h 59 % 0.0 mm
13:29 24.0 °C 14.9 °C 1020.9 hPa South 5.6 km/h 5.6 km/h 57 % 0.0 mm
13:34 23.5 °C 14.5 °C 1020.9 hPa SE 11.1 km/h 11.1 km/h 57 % 0.0 mm
13:39 24.2 °C 15.2 °C 1020.9 hPa ESE 3.7 km/h 3.7 km/h 57 % 0.0 mm
13:44 24.8 °C 15.4 °C 1020.9 hPa East 5.6 km/h 5.6 km/h 56 % 0.0 mm
13:49 24.3 °C 14.9 °C 1020.9 hPa ESE 7.4 km/h 7.4 km/h 56 % 0.0 mm
13:54 24.1 °C 15.1 °C 1020.9 hPa NE 7.4 km/h 7.4 km/h 57 % 0.0 mm
13:59 23.8 °C 15.1 °C 1019.9 hPa ESE 7.4 km/h 7.4 km/h 58 % 0.0 mm
14:14 23.6 °C 14.6 °C 1019.9 hPa ENE 4.2 km/h 4.2 km/h 57 % 0.0 mm
14:19 23.2 °C 14.2 °C 1019.9 hPa ENE 7.4 km/h 7.4 km/h 57 % 0.0 mm
14:24 23.1 °C 14.1 °C 1019.9 hPa ENE 7.9 km/h 7.9 km/h 57 % 0.0 mm
14:29 23.0 °C 14.0 °C 1019.9 hPa ESE 6.1 km/h 6.1 km/h 57 % 0.0 mm
14:34 23.1 °C 14.1 °C 1019.9 hPa ESE 5.6 km/h 5.6 km/h 57 % 0.0 mm
14:39 23.3 °C 14.3 °C 1019.9 hPa ESE 13.0 km/h 13.0 km/h 57 % 0.0 mm
14:44 23.2 °C 13.9 °C 1019.9 hPa WNW 5.6 km/h 5.6 km/h 56 % 0.0 mm
14:49 23.1 °C 13.8 °C 1019.9 hPa ESE 4.7 km/h 4.7 km/h 56 % 0.0 mm
14:54 23.2 °C 13.9 °C 1019.9 hPa South 7.4 km/h 7.4 km/h 56 % 0.0 mm
14:59 23.5 °C 14.2 °C 1019.9 hPa WSW 3.7 km/h 3.7 km/h 56 % 0.0 mm
15:04 23.7 °C 14.1 °C 1019.9 hPa SSE 2.3 km/h 2.6 km/h 55 % 0.0 mm
15:09 23.7 °C 14.4 °C 1019.9 hPa SW 3.7 km/h 3.7 km/h 56 % 0.0 mm
15:14 23.9 °C 14.3 °C 1019.9 hPa ESE 7.4 km/h 7.4 km/h 55 % 0.0 mm
15:19 24.3 °C 14.1 °C 1019.9 hPa ESE 9.3 km/h 9.3 km/h 53 % 0.0 mm
15:24 24.7 °C 14.8 °C 1019.9 hPa SW 7.9 km/h 7.9 km/h 54 % 0.0 mm
15:29 24.9 °C 14.7 °C 1019.9 hPa WSW 9.3 km/h 9.3 km/h 53 % 0.0 mm
15:34 24.9 °C 14.4 °C 1019.9 hPa SE 7.4 km/h 7.4 km/h 52 % 0.0 mm
15:39 24.8 °C 14.0 °C 1019.9 hPa ESE 7.4 km/h 7.4 km/h 51 % 0.0 mm
15:44 25.4 °C 13.9 °C 1019.9 hPa SSW 3.7 km/h 3.7 km/h 49 % 0.0 mm
15:49 25.2 °C 14.1 °C 1019.9 hPa West 9.5 km/h 9.5 km/h 50 % 0.0 mm
15:54 25.0 °C 13.8 °C 1019.9 hPa NE 7.6 km/h 7.6 km/h 50 % 0.0 mm
15:59 24.8 °C 14.3 °C 1019.9 hPa SSW 4.7 km/h 4.7 km/h 52 % 0.0 mm
16:04 24.9 °C 14.1 °C 1019.9 hPa SSE 5.6 km/h 5.6 km/h 51 % 0.0 mm
16:09 25.0 °C 13.8 °C 1019.9 hPa SSW 3.2 km/h 3.2 km/h 50 % 0.0 mm
16:14 24.9 °C 14.1 °C 1019.9 hPa WSW 5.6 km/h 5.6 km/h 51 % 0.0 mm
16:19 24.9 °C 14.1 °C 1019.9 hPa SW 3.7 km/h 3.7 km/h 51 % 0.0 mm
16:24 24.8 °C 14.0 °C 1019.9 hPa SW 3.7 km/h 3.7 km/h 51 % 0.0 mm
16:29 24.5 °C 13.7 °C 1019.9 hPa ESE 7.4 km/h 7.4 km/h 51 % 0.0 mm
16:34 23.8 °C 13.1 °C 1019.9 hPa ESE 12.2 km/h 12.2 km/h 51 % 0.0 mm
16:39 23.5 °C 13.1 °C 1019.9 hPa ESE 9.3 km/h 9.3 km/h 52 % 0.0 mm
16:44 23.3 °C 13.4 °C 1019.9 hPa East 9.3 km/h 9.3 km/h 54 % 0.0 mm
16:49 23.1 °C 13.8 °C 1019.9 hPa East 16.1 km/h 16.1 km/h 56 % 0.0 mm
16:54 22.8 °C 14.1 °C 1019.9 hPa East 14.8 km/h 14.8 km/h 58 % 0.0 mm
16:59 22.8 °C 14.4 °C 1019.9 hPa ESE 13.0 km/h 13.0 km/h 59 % 0.0 mm
17:04 22.6 °C 14.4 °C 1019.9 hPa ESE 11.1 km/h 11.1 km/h 60 % 0.0 mm
17:09 22.5 °C 14.3 °C 1019.9 hPa ESE 9.3 km/h 9.3 km/h 60 % 0.0 mm
17:14 22.5 °C 14.6 °C 1019.9 hPa ESE 9.3 km/h 9.3 km/h 61 % 0.0 mm
17:19 22.4 °C 14.5 °C 1019.9 hPa ESE 11.1 km/h 11.1 km/h 61 % 0.0 mm
17:24 22.4 °C 14.8 °C 1019.9 hPa ENE 9.3 km/h 9.3 km/h 62 % 0.0 mm
17:29 22.4 °C 14.8 °C 1019.9 hPa East 6.9 km/h 6.9 km/h 62 % 0.0 mm
17:34 22.4 °C 15.0 °C 1019.9 hPa ESE 9.3 km/h 9.3 km/h 63 % 0.0 mm
17:39 22.4 °C 15.0 °C 1019.9 hPa SE 11.1 km/h 11.1 km/h 63 % 0.0 mm
17:44 22.3 °C 14.9 °C 1019.9 hPa ENE 9.3 km/h 9.3 km/h 63 % 0.0 mm
17:49 22.3 °C 14.9 °C 1019.9 hPa ENE 9.5 km/h 9.5 km/h 63 % 0.0 mm
17:54 22.1 °C 14.9 °C 1019.9 hPa East 7.4 km/h 7.4 km/h 64 % 0.0 mm
17:59 22.1 °C 14.9 °C 1019.9 hPa ESE 5.8 km/h 5.8 km/h 64 % 0.0 mm
18:04 22.1 °C 14.9 °C 1019.9 hPa ENE 5.6 km/h 5.8 km/h 64 % 0.0 mm
18:09 22.0 °C 14.9 °C 1019.9 hPa ESE 14.8 km/h 14.8 km/h 64 % 0.0 mm
18:14 21.9 °C 15.3 °C 1019.9 hPa ENE 9.3 km/h 9.3 km/h 66 % 0.0 mm
18:19 21.9 °C 15.3 °C 1019.9 hPa East 5.6 km/h 5.8 km/h 66 % 0.0 mm
18:24 21.9 °C 15.3 °C 1019.9 hPa ESE 7.4 km/h 7.4 km/h 66 % 0.0 mm
18:29 21.9 °C 15.3 °C 1018.8 hPa SW 2.3 km/h   66 % 0.0 mm
18:39 22.1 °C 14.9 °C 1018.8 hPa SSW 1.9 km/h   64 % 0.0 mm
18:44 22.1 °C 14.9 °C 1019.9 hPa WSW 7.4 km/h 7.4 km/h 64 % 0.0 mm
18:45 22.1 °C 14.9 °C 1019.9 hPa WSW 7.4 km/h 7.4 km/h 64 % 0.0 mm
18:50 22.1 °C 14.9 °C 1019.9 hPa SW 5.6 km/h 6.9 km/h 64 % 0.0 mm
18:55 22.0 °C 14.9 °C 1019.9 hPa SW 6.1 km/h 6.9 km/h 64 % 0.0 mm
19:00 21.8 °C 14.9 °C 1019.9 hPa SW 9.5 km/h 9.5 km/h 65 % 0.0 mm
19:05 21.7 °C 15.1 °C 1019.9 hPa SW 7.6 km/h 7.6 km/h 66 % 0.0 mm
19:10 21.6 °C 15.0 °C 1019.9 hPa SSW 7.4 km/h 7.4 km/h 66 % 0.0 mm
19:15 21.5 °C 14.9 °C 1019.9 hPa SW 7.9 km/h 7.9 km/h 66 % 0.0 mm
19:20 21.3 °C 14.7 °C 1019.9 hPa SW 10.3 km/h 10.3 km/h 66 % 0.0 mm
19:25 21.2 °C 14.6 °C 1019.9 hPa SSW 4.2 km/h 4.2 km/h 66 % 0.0 mm
19:30 21.0 °C 14.6 °C 1019.9 hPa SSW 9.3 km/h 9.3 km/h 67 % 0.0 mm
19:35 20.9 °C 14.6 °C 1019.9 hPa SW 3.7 km/h 3.7 km/h 67 % 0.0 mm
19:40 20.8 °C 14.4 °C 1019.9 hPa SW 5.6 km/h 5.6 km/h 67 % 0.0 mm
19:45 20.6 °C 14.5 °C 1019.9 hPa SSW 5.6 km/h 5.6 km/h 68 % 0.0 mm
19:50 20.6 °C 14.5 °C 1019.9 hPa SW 3.7 km/h   68 % 0.0 mm
19:55 20.4 °C 14.5 °C 1019.9 hPa WSW 7.4 km/h 7.4 km/h 69 % 0.0 mm
20:00 20.3 °C 14.4 °C 1020.9 hPa SW 3.5 km/h 3.5 km/h 69 % 0.0 mm
20:05 20.2 °C 14.3 °C 1020.9 hPa SW 3.7 km/h 3.7 km/h 69 % 0.0 mm
20:10 20.1 °C 14.4 °C 1020.9 hPa SW 3.9 km/h 3.9 km/h 70 % 0.0 mm
20:15 20.0 °C 14.3 °C 1020.9 hPa SW 3.7 km/h 3.7 km/h 70 % 0.0 mm
20:20 20.0 °C 14.3 °C 1020.9 hPa West 3.7 km/h 3.7 km/h 70 % 0.0 mm
20:30 19.8 °C 14.6 °C 1020.9 hPa SW 3.7 km/h 3.7 km/h 72 % 0.0 mm
20:35 19.8 °C 14.6 °C 1020.9 hPa WSW 1.9 km/h   72 % 0.0 mm
20:40 19.7 °C 14.7 °C 1020.9 hPa SW 3.7 km/h   73 % 0.0 mm
20:45 19.6 °C 14.6 °C 1021.9 hPa WSW 3.7 km/h 3.7 km/h 73 % 0.0 mm
20:50 19.6 °C 14.6 °C 1021.9 hPa West 3.7 km/h 3.7 km/h 73 % 0.0 mm
20:55 19.5 °C 14.7 °C 1021.9 hPa Calm     74 % 0.0 mm
21:00 19.4 °C 14.7 °C 1021.9 hPa SW 1.4 km/h   74 % 0.0 mm
21:10 19.3 °C 14.8 °C 1021.9 hPa Calm     75 % 0.0 mm
21:15 19.2 °C 14.7 °C 1021.9 hPa Calm     75 % 0.0 mm
21:20 19.1 °C 14.6 °C 1021.9 hPa Calm     75 % 0.0 mm
21:25 19.1 °C 14.6 °C 1021.9 hPa Calm     75 % 0.0 mm
21:30 19.0 °C 14.7 °C 1021.9 hPa Calm     76 % 0.0 mm
21:35 19.0 °C 14.7 °C 1021.9 hPa Calm     76 % 0.0 mm
21:40 18.9 °C 14.6 °C 1021.9 hPa Calm   1.6 km/h 76 % 0.0 mm
21:45 18.8 °C 14.7 °C 1021.9 hPa Calm     77 % 0.0 mm
21:50 18.7 °C 14.6 °C 1021.9 hPa Calm     77 % 0.0 mm
21:55 18.7 °C 14.6 °C 1021.9 hPa Calm     77 % 0.0 mm
22:00 18.6 °C 14.7 °C 1021.9 hPa Calm     78 % 0.0 mm
22:05 18.6 °C 14.7 °C 1021.9 hPa Calm     78 % 0.0 mm
22:10 18.6 °C 14.7 °C 1021.9 hPa Calm     78 % 0.0 mm
22:15 18.5 °C 14.6 °C 1020.9 hPa Calm     78 % 0.0 mm
22:20 18.5 °C 14.8 °C 1020.9 hPa Calm     79 % 0.0 mm
22:25 18.5 °C 14.8 °C 1020.9 hPa Calm     79 % 0.0 mm
22:30 18.4 °C 14.7 °C 1021.9 hPa Calm     79 % 0.0 mm
22:35 18.4 °C 14.7 °C 1021.9 hPa Calm     79 % 0.0 mm
22:40 18.3 °C 14.6 °C 1021.9 hPa Calm     79 % 0.0 mm
22:45 18.3 °C 14.6 °C 1021.9 hPa Calm     79 % 0.0 mm
22:50 18.2 °C 14.7 °C 1021.9 hPa Calm     80 % 0.0 mm
23:00 18.2 °C 14.7 °C 1021.9 hPa Calm     80 % 0.0 mm
23:05 18.2 °C 14.7 °C 1021.9 hPa Calm     80 % 0.0 mm
23:10 18.1 °C 14.6 °C 1021.9 hPa Calm   3.2 km/h 80 % 0.0 mm
23:15 18.2 °C 14.7 °C 1021.9 hPa Calm   3.2 km/h 80 % 0.0 mm
23:20 18.1 °C 14.8 °C 1021.9 hPa Calm     81 % 0.0 mm
23:25 18.1 °C 14.8 °C 1021.9 hPa West 1.9 km/h   81 % 0.0 mm
23:30 18.1 °C 14.8 °C 1021.9 hPa West 1.9 km/h   81 % 0.0 mm
23:35 18.1 °C 14.8 °C 1021.9 hPa Calm     81 % 0.0 mm
23:40 18.1 °C 15.0 °C 1021.9 hPa Calm     82 % 0.0 mm
23:45 18.0 °C 14.9 °C 1021.9 hPa Calm     82 % 0.0 mm
23:47 18.0 °C 14.9 °C 1021.9 hPa Calm     82 % 0.0 mm
23:50 15.0 °C 13.0 °C 1021.9 hPa Calm   1.6 km/h 88 % 0.0 mm
23:52 17.8 °C 14.7 °C 1021.9 hPa Calm     82 % 0.0 mm
23:57 17.8 °C 14.7 °C 1021.9 hPa Calm     82 % 0.0 mm
Meteo Sesrovires
Elogis d' Weather Underground - 4 mb

Guio original per  Jim McMurry - jmcmurry@mwt.net Adaptat per a la plantilla per  Wim van der Kuil - Leuven-Template.eu

Trobareu la nostra informacio del temps tambe a:

Weather Underground

AWEKAS